AXM8011 WMKK-WMKP
Flight info
| Callsign | AXM8011 |
|---|---|
| Flight time | N/A |
| Altitude | 20000 |
| Route | ATIMU1E ATIMU Y506 TEPUS DCT GORVU GORVU1E |
| Aircraft | A321/M-SDE3FGHIRWY/LB1 |
Departure
| Time | 2026-05-04 13:19 |
|---|---|
| Airport | Kuala Lumpur International Airport (WMKK) |
Arrival
| Time | N/A |
|---|---|
| Airport | Penang International Airport (WMKP) |
| Time | Latitude | Longitude | Altitude | Speed | Heading |
|---|---|---|---|---|---|
| 2026-05-04 12:47 | 2.73976 | 101.71649 | 74 ft | 0 kts | 146° |
| 2026-05-04 13:05 | 2.73977 | 101.71648 | 75 ft | 1 kts | 146° |
| 2026-05-04 13:05 | 2.73990 | 101.71640 | 75 ft | 2 kts | 146° |
| 2026-05-04 13:05 | 2.74002 | 101.71632 | 75 ft | 2 kts | 146° |
| 2026-05-04 13:05 | 2.74014 | 101.71623 | 75 ft | 2 kts | 146° |
| 2026-05-04 13:06 | 2.74027 | 101.71615 | 75 ft | 2 kts | 146° |
| 2026-05-04 13:06 | 2.74039 | 101.71606 | 75 ft | 2 kts | 146° |
| 2026-05-04 13:06 | 2.74052 | 101.71598 | 75 ft | 2 kts | 146° |
| 2026-05-04 13:06 | 2.74065 | 101.71591 | 75 ft | 2 kts | 172° |
| 2026-05-04 13:07 | 2.74080 | 101.71592 | 75 ft | 2 kts | 193° |
| 2026-05-04 13:07 | 2.74094 | 101.71597 | 75 ft | 2 kts | 217° |
| 2026-05-04 13:07 | 2.74102 | 101.71605 | 75 ft | 0 kts | 232° |
| 2026-05-04 13:07 | 2.74106 | 101.71611 | 75 ft | 0 kts | 236° |
| 2026-05-04 13:08 | 2.74106 | 101.71610 | 74 ft | 0 kts | 236° |
| 2026-05-04 13:10 | 2.74103 | 101.71606 | 74 ft | 1 kts | 234° |
| 2026-05-04 13:10 | 2.74092 | 101.71590 | 74 ft | 4 kts | 234° |
| 2026-05-04 13:11 | 2.74068 | 101.71557 | 74 ft | 8 kts | 234° |
| 2026-05-04 13:11 | 2.74032 | 101.71503 | 74 ft | 9 kts | 236° |
| 2026-05-04 13:11 | 2.73995 | 101.71448 | 74 ft | 10 kts | 236° |
| 2026-05-04 13:11 | 2.73952 | 101.71384 | 75 ft | 11 kts | 236° |
| 2026-05-04 13:12 | 2.73902 | 101.71310 | 75 ft | 13 kts | 236° |
| 2026-05-04 13:12 | 2.73845 | 101.71227 | 74 ft | 14 kts | 236° |
| 2026-05-04 13:12 | 2.73785 | 101.71138 | 74 ft | 16 kts | 236° |
| 2026-05-04 13:12 | 2.73722 | 101.71044 | 74 ft | 16 kts | 236° |
| 2026-05-04 13:13 | 2.73658 | 101.70949 | 74 ft | 16 kts | 235° |
| 2026-05-04 13:13 | 2.73593 | 101.70852 | 74 ft | 16 kts | 237° |
| 2026-05-04 13:13 | 2.73531 | 101.70763 | 74 ft | 13 kts | 235° |
| 2026-05-04 13:13 | 2.73477 | 101.70682 | 74 ft | 14 kts | 236° |
| 2026-05-04 13:14 | 2.73419 | 101.70637 | 74 ft | 11 kts | 170° |
| 2026-05-04 13:14 | 2.73341 | 101.70686 | 75 ft | 14 kts | 146° |
| 2026-05-04 13:14 | 2.73246 | 101.70750 | 74 ft | 17 kts | 146° |
| 2026-05-04 13:14 | 2.73135 | 101.70824 | 74 ft | 20 kts | 147° |
| 2026-05-04 13:15 | 2.73019 | 101.70901 | 75 ft | 20 kts | 146° |
| 2026-05-04 13:15 | 2.72900 | 101.70981 | 75 ft | 20 kts | 146° |
| 2026-05-04 13:15 | 2.72777 | 101.71063 | 74 ft | 20 kts | 146° |
| 2026-05-04 13:15 | 2.72658 | 101.71143 | 75 ft | 20 kts | 146° |
| 2026-05-04 13:16 | 2.72539 | 101.71223 | 74 ft | 20 kts | 146° |
| 2026-05-04 13:16 | 2.72432 | 101.71295 | 74 ft | 17 kts | 146° |
| 2026-05-04 13:16 | 2.72334 | 101.71361 | 74 ft | 12 kts | 146° |
| 2026-05-04 13:16 | 2.72282 | 101.71378 | 74 ft | 8 kts | 213° |
| 2026-05-04 13:17 | 2.72243 | 101.71327 | 75 ft | 9 kts | 237° |
| 2026-05-04 13:17 | 2.72204 | 101.71265 | 74 ft | 10 kts | 238° |
| 2026-05-04 13:17 | 2.72197 | 101.71227 | 74 ft | 2 kts | 309° |
| 2026-05-04 13:17 | 2.72203 | 101.71223 | 74 ft | 1 kts | 326° |
| 2026-05-04 13:18 | 2.72270 | 101.71178 | 75 ft | 37 kts | 326° |
| 2026-05-04 13:18 | 2.72697 | 101.70891 | 75 ft | 107 kts | 326° |
| 2026-05-04 13:18 | 2.73475 | 101.70369 | 76 ft | 162 kts | 326° |
| 2026-05-04 13:18 | 2.74464 | 101.69706 | 519 ft | 173 kts | 326° |
| 2026-05-04 13:19 | 2.75454 | 101.69044 | 1171 ft | 175 kts | 326° |
| 2026-05-04 13:19 | 2.76117 | 101.68588 | 1655 ft | 175 kts | 322° |
| 2026-05-04 13:19 | 2.77290 | 101.67430 | 2309 ft | 188 kts | 307° |
| 2026-05-04 13:19 | 2.78152 | 101.66415 | 2725 ft | 202 kts | 318° |
| 2026-05-04 13:20 | 2.79322 | 101.65505 | 3034 ft | 224 kts | 324° |
| 2026-05-04 13:20 | 2.80651 | 101.64557 | 3488 ft | 243 kts | 324° |
| 2026-05-04 13:20 | 2.82058 | 101.63540 | 3974 ft | 260 kts | 323° |
| 2026-05-04 13:20 | 2.83523 | 101.62456 | 4707 ft | 266 kts | 323° |
| 2026-05-04 13:21 | 2.85012 | 101.61337 | 5571 ft | 268 kts | 322° |
| 2026-05-04 13:21 | 2.86484 | 101.60221 | 6402 ft | 271 kts | 322° |
| 2026-05-04 13:21 | 2.88013 | 101.59055 | 7132 ft | 279 kts | 322° |
| 2026-05-04 13:21 | 2.89570 | 101.57863 | 7772 ft | 290 kts | 322° |
| 2026-05-04 13:22 | 2.91180 | 101.56628 | 8621 ft | 292 kts | 321° |
| 2026-05-04 13:22 | 2.92782 | 101.55398 | 9423 ft | 296 kts | 321° |
| 2026-05-04 13:22 | 2.94437 | 101.54125 | 10042 ft | 306 kts | 321° |
| 2026-05-04 13:22 | 2.96137 | 101.52818 | 10812 ft | 310 kts | 321° |
| 2026-05-04 13:23 | 2.97862 | 101.51491 | 11460 ft | 318 kts | 321° |
| 2026-05-04 13:23 | 2.99619 | 101.50138 | 12104 ft | 324 kts | 321° |
| 2026-05-04 13:23 | 3.01406 | 101.48764 | 12862 ft | 327 kts | 320° |
| 2026-05-04 13:23 | 3.03200 | 101.47384 | 13561 ft | 331 kts | 320° |
| 2026-05-04 13:24 | 3.05042 | 101.45966 | 14163 ft | 338 kts | 320° |
| 2026-05-04 13:24 | 3.06906 | 101.44531 | 14815 ft | 342 kts | 320° |
| 2026-05-04 13:24 | 3.08819 | 101.43057 | 15493 ft | 346 kts | 320° |
| 2026-05-04 13:25 | 3.12657 | 101.40113 | 16768 ft | 354 kts | 320° |